createdAt,value
2019-05-03T00:00:46.178Z,949.56
2019-05-03T00:03:12.470Z,949.56
2019-05-03T00:05:38.776Z,949.59
2019-05-03T00:08:05.169Z,949.61
2019-05-03T00:10:31.857Z,949.58
2019-05-03T00:12:57.798Z,949.69
2019-05-03T00:15:24.120Z,949.70
2019-05-03T00:17:50.422Z,949.65
2019-05-03T00:20:16.753Z,949.63
2019-05-03T00:22:43.055Z,949.65
2019-05-03T00:25:09.367Z,949.65
2019-05-03T00:27:35.690Z,949.62
2019-05-03T00:30:02.880Z,949.65
2019-05-03T00:32:28.360Z,949.68
2019-05-03T00:34:54.672Z,949.61
2019-05-03T00:37:22.097Z,949.66
2019-05-03T00:39:47.297Z,949.60
2019-05-03T00:42:13.646Z,949.65
2019-05-03T00:44:39.967Z,949.61
2019-05-03T00:47:06.272Z,949.62
2019-05-03T00:49:32.596Z,949.64
2019-05-03T00:51:58.895Z,949.61
2019-05-03T00:54:25.221Z,949.65
2019-05-03T00:56:52.254Z,949.66
2019-05-03T00:59:17.849Z,949.65
2019-05-03T01:01:44.158Z,949.64
2019-05-03T01:04:11.813Z,949.67
2019-05-03T01:06:36.851Z,949.69
2019-05-03T01:09:03.157Z,949.61
2019-05-03T01:11:29.479Z,949.70
2019-05-03T01:13:55.783Z,949.68
2019-05-03T01:16:22.678Z,949.68
2019-05-03T01:18:48.408Z,949.69
2019-05-03T01:21:14.738Z,949.72
2019-05-03T01:23:42.010Z,949.81
2019-05-03T01:26:07.358Z,949.78
2019-05-03T01:28:33.687Z,949.72
2019-05-03T01:30:59.992Z,949.71
2019-05-03T01:33:26.299Z,949.75
2019-05-03T01:35:52.631Z,949.75
2019-05-03T01:38:19.505Z,949.77
2019-05-03T01:40:45.263Z,949.67
2019-05-03T01:43:11.767Z,949.71
2019-05-03T01:45:37.884Z,949.73
2019-05-03T01:48:04.215Z,949.80
2019-05-03T01:50:32.013Z,949.75
2019-05-03T01:52:56.887Z,949.79
2019-05-03T01:55:23.193Z,949.72
2019-05-03T01:57:49.524Z,949.78
2019-05-03T02:00:15.829Z,949.74
2019-05-03T02:02:42.136Z,949.71
2019-05-03T02:05:08.455Z,949.78
2019-05-03T02:07:34.759Z,949.71
2019-05-03T02:10:02.799Z,949.77
2019-05-03T02:12:27.411Z,949.70
2019-05-03T02:14:53.714Z,949.75
2019-05-03T02:17:20.039Z,949.77
2019-05-03T02:19:46.345Z,949.72
2019-05-03T02:22:12.665Z,949.79
2019-05-03T02:24:38.994Z,949.77
2019-05-03T02:27:05.304Z,949.85
2019-05-03T02:29:32.555Z,949.79
2019-05-03T02:31:57.958Z,949.92
2019-05-03T02:34:24.290Z,949.90
2019-05-03T02:36:53.492Z,949.87
2019-05-03T02:39:16.920Z,949.83
2019-05-03T02:41:47.893Z,949.83
2019-05-03T02:44:09.559Z,949.88
2019-05-03T02:46:36.277Z,949.85
2019-05-03T02:49:02.183Z,949.80
2019-05-03T02:51:28.487Z,949.87
2019-05-03T02:53:57.059Z,949.92
2019-05-03T02:56:22.281Z,949.95
2019-05-03T02:58:47.436Z,949.93
2019-05-03T03:01:16.248Z,950.00
2019-05-03T03:03:40.070Z,950.00
2019-05-03T03:06:06.895Z,950.02
2019-05-03T03:08:33.406Z,949.97
2019-05-03T03:10:59.023Z,949.96
2019-05-03T03:13:25.603Z,949.98
2019-05-03T03:15:51.656Z,950.05
2019-05-03T03:18:17.956Z,950.13
2019-05-03T03:20:45.005Z,950.11
2019-05-03T03:23:14.267Z,950.13
2019-05-03T03:25:36.884Z,950.14
2019-05-03T03:28:05.307Z,950.11
2019-05-03T03:30:29.889Z,950.05
2019-05-03T03:32:57.709Z,950.06
2019-05-03T03:35:22.657Z,950.06
2019-05-03T03:37:48.543Z,950.10
2019-05-03T03:40:16.049Z,950.16
2019-05-03T03:42:41.164Z,950.17
2019-05-03T03:45:07.508Z,950.21
2019-05-03T03:47:35.846Z,950.22
2019-05-03T03:50:00.126Z,950.20
2019-05-03T03:52:26.435Z,950.20
2019-05-03T03:54:55.256Z,950.16
2019-05-03T03:57:19.060Z,950.24
2019-05-03T03:59:45.665Z,950.20
2019-05-03T04:02:11.686Z,950.22
2019-05-03T04:04:38.024Z,950.22
2019-05-03T04:07:06.631Z,950.26
2019-05-03T04:09:30.671Z,950.28
2019-05-03T04:11:57.090Z,950.32
2019-05-03T04:14:25.384Z,950.38
2019-05-03T04:16:49.626Z,950.31
2019-05-03T04:19:17.455Z,950.22
2019-05-03T04:21:42.262Z,950.23
2019-05-03T04:24:08.572Z,950.22
2019-05-03T04:26:35.786Z,950.35
2019-05-03T04:29:01.195Z,950.32
2019-05-03T04:31:27.522Z,950.34
2019-05-03T04:33:56.291Z,950.44
2019-05-03T04:36:20.158Z,950.47
2019-05-03T04:38:46.482Z,950.40
2019-05-03T04:41:15.669Z,950.42
2019-05-03T04:43:39.119Z,950.43
2019-05-03T04:46:06.562Z,950.42
2019-05-03T04:48:31.754Z,950.50
2019-05-03T04:50:58.056Z,950.42
2019-05-03T04:53:25.960Z,950.48
2019-05-03T04:55:50.704Z,950.46
2019-05-03T04:58:17.023Z,950.46
2019-05-03T05:00:46.287Z,950.43
2019-05-03T05:03:09.663Z,950.30
2019-05-03T05:05:36.461Z,950.33
2019-05-03T05:08:02.294Z,950.32
2019-05-03T05:10:28.620Z,950.41
2019-05-03T05:12:55.210Z,950.46
2019-05-03T05:15:21.248Z,950.48
2019-05-03T05:17:47.567Z,950.51
2019-05-03T05:20:14.483Z,950.56
2019-05-03T05:22:40.237Z,950.58
2019-05-03T05:25:06.543Z,950.54
2019-05-03T05:27:34.635Z,950.53
2019-05-03T05:29:59.182Z,950.59
2019-05-03T05:32:25.474Z,950.54
2019-05-03T05:34:51.828Z,950.51
2019-05-03T05:37:18.151Z,950.45
2019-05-03T05:39:44.788Z,950.51
2019-05-03T05:42:10.788Z,950.51
2019-05-03T05:44:37.100Z,950.49
2019-05-03T05:47:04.696Z,950.49
2019-05-03T05:49:29.720Z,950.52
2019-05-03T05:51:56.052Z,950.60
2019-05-03T05:54:22.352Z,950.59
2019-05-03T05:56:48.658Z,950.61
2019-05-03T05:59:15.008Z,950.56
2019-05-03T06:01:41.290Z,950.63
2019-05-03T06:04:09.934Z,950.64
2019-05-03T06:06:34.804Z,950.60
2019-05-03T06:09:00.245Z,950.68
2019-05-03T06:11:26.552Z,950.62
2019-05-03T06:13:54.516Z,950.63
2019-05-03T06:16:19.242Z,950.63
2019-05-03T06:18:45.544Z,950.70
2019-05-03T06:21:11.881Z,950.66
2019-05-03T06:23:38.184Z,950.62
2019-05-03T06:26:04.963Z,950.68
2019-05-03T06:28:30.819Z,950.69
2019-05-03T06:30:57.146Z,950.78
2019-05-03T06:33:24.492Z,950.70
2019-05-03T06:35:49.759Z,950.72
2019-05-03T06:38:16.081Z,950.64
2019-05-03T06:40:44.337Z,950.66
2019-05-03T06:43:12.646Z,950.68
2019-05-03T06:45:35.407Z,950.71
2019-05-03T06:48:01.349Z,950.71
2019-05-03T06:50:28.952Z,950.66
2019-05-03T06:52:54.820Z,950.64
2019-05-03T06:55:20.288Z,950.59
2019-05-03T06:57:49.569Z,950.53
2019-05-03T07:00:12.913Z,950.60
2019-05-03T07:02:39.279Z,950.54
2019-05-03T07:05:05.584Z,950.55
2019-05-03T07:07:31.906Z,950.60
2019-05-03T07:09:58.216Z,950.49
2019-05-03T07:12:25.004Z,950.53
2019-05-03T07:14:50.866Z,950.55
2019-05-03T07:17:17.175Z,950.50
2019-05-03T07:19:43.497Z,950.45
2019-05-03T07:22:09.803Z,950.46
2019-05-03T07:24:40.668Z,950.41
2019-05-03T07:27:02.471Z,950.41
2019-05-03T07:29:28.775Z,950.40
2019-05-03T07:31:55.098Z,950.43
2019-05-03T07:34:21.417Z,950.41
2019-05-03T07:36:47.721Z,950.44
2019-05-03T07:39:14.581Z,950.51
2019-05-03T07:41:40.357Z,950.36
2019-05-03T07:44:06.694Z,950.32
2019-05-03T07:46:34.741Z,950.36
2019-05-03T07:48:59.328Z,950.31
2019-05-03T07:51:25.633Z,950.27
2019-05-03T07:53:51.935Z,950.26
2019-05-03T07:56:18.273Z,950.25
2019-05-03T07:58:46.197Z,950.32
2019-05-03T08:01:10.922Z,950.33
2019-05-03T08:03:37.239Z,950.26
2019-05-03T08:06:04.769Z,950.20
2019-05-03T08:08:29.938Z,950.17
2019-05-03T08:10:56.242Z,950.10
2019-05-03T08:13:22.547Z,950.15
2019-05-03T08:15:49.008Z,950.08
2019-05-03T08:18:15.583Z,950.09
2019-05-03T08:20:41.679Z,950.15
2019-05-03T08:23:07.985Z,950.19
2019-05-03T08:25:35.463Z,950.15
2019-05-03T08:28:00.663Z,950.05
2019-05-03T08:30:27.107Z,950.00
2019-05-03T08:32:54.902Z,949.96
2019-05-03T08:35:19.867Z,950.00
2019-05-03T08:37:46.200Z,949.96
2019-05-03T08:40:12.497Z,949.87
2019-05-03T08:42:38.836Z,949.80
2019-05-03T08:45:07.906Z,949.75
2019-05-03T08:47:31.468Z,949.78
2019-05-03T08:49:57.775Z,949.79
2019-05-03T08:52:24.780Z,949.74
2019-05-03T08:54:50.495Z,949.77
2019-05-03T08:57:16.805Z,949.69
2019-05-03T08:59:45.773Z,949.62
2019-05-03T09:02:17.654Z,949.60
2019-05-03T09:04:42.682Z,949.61
2019-05-03T09:07:05.471Z,949.57
2019-05-03T09:09:31.680Z,949.59
2019-05-03T09:11:58.005Z,949.46
2019-05-03T09:14:24.566Z,949.46
2019-05-03T09:16:50.665Z,949.49
2019-05-03T09:19:16.978Z,949.36
2019-05-03T09:21:45.271Z,949.45
2019-05-03T09:24:09.642Z,949.39
2019-05-03T09:26:35.955Z,949.38
2019-05-03T09:29:02.273Z,949.30
2019-05-03T09:31:28.652Z,949.28
2019-05-03T09:33:55.108Z,949.25
2019-05-03T09:36:21.300Z,949.23
2019-05-03T09:38:47.608Z,949.21
2019-05-03T09:41:15.006Z,949.21
2019-05-03T09:43:40.240Z,949.12
2019-05-03T09:46:06.568Z,949.03
2019-05-03T09:48:34.672Z,948.91
2019-05-03T09:50:59.180Z,948.86
2019-05-03T09:53:25.695Z,948.90
2019-05-03T09:55:51.827Z,948.81
2019-05-03T09:58:18.199Z,948.83
2019-05-03T10:00:44.673Z,948.76
2019-05-03T10:03:10.788Z,948.76
2019-05-03T10:05:37.104Z,948.74
2019-05-03T10:08:05.105Z,948.70
2019-05-03T10:10:30.184Z,948.73
2019-05-03T10:12:56.500Z,948.66
2019-05-03T10:15:22.834Z,948.69
2019-05-03T10:17:49.150Z,948.59
2019-05-03T10:20:15.506Z,948.69
2019-05-03T10:22:41.793Z,948.53
2019-05-03T10:25:08.154Z,948.59
2019-05-03T10:27:34.757Z,948.52
2019-05-03T10:30:12.353Z,948.37
2019-05-03T10:32:27.269Z,948.39
2019-05-03T10:34:53.575Z,948.44
2019-05-03T10:37:19.909Z,948.31
2019-05-03T10:39:46.253Z,948.41
2019-05-03T10:42:12.560Z,948.30
2019-05-03T10:44:38.891Z,948.26
2019-05-03T10:47:05.594Z,948.22
2019-05-03T10:49:31.501Z,948.12
2019-05-03T10:51:57.827Z,948.13
2019-05-03T10:54:24.137Z,948.11
2019-05-03T10:56:50.464Z,948.13
2019-05-03T10:59:16.805Z,948.05
2019-05-03T11:01:45.128Z,948.18
2019-05-03T11:04:09.432Z,948.10
2019-05-03T11:06:35.765Z,948.04
2019-05-03T11:09:02.096Z,948.17
2019-05-03T11:11:28.414Z,948.07
2019-05-03T11:13:54.744Z,948.01
2019-05-03T11:16:21.057Z,947.99
2019-05-03T11:18:47.439Z,947.87
2019-05-03T11:21:14.440Z,947.81
2019-05-03T11:23:40.056Z,947.79
2019-05-03T11:26:06.361Z,947.76
2019-05-03T11:28:32.665Z,947.78
2019-05-03T11:31:02.271Z,947.77
2019-05-03T11:33:25.316Z,947.70
2019-05-03T11:35:51.649Z,947.74
2019-05-03T11:38:18.342Z,947.73
2019-05-03T11:40:45.484Z,947.61
2019-05-03T11:43:10.594Z,947.56
2019-05-03T11:45:36.919Z,947.56
2019-05-03T11:48:03.249Z,947.57
2019-05-03T11:50:29.597Z,947.49
2019-05-03T11:52:55.915Z,947.51
2019-05-03T11:55:22.272Z,947.55
2019-05-03T11:57:48.600Z,947.50
2019-05-03T12:00:14.922Z,947.44
2019-05-03T12:02:41.231Z,947.35
2019-05-03T12:05:07.558Z,947.29
2019-05-03T12:07:39.766Z,947.26
2019-05-03T12:10:00.282Z,947.25
2019-05-03T12:12:29.388Z,947.23
2019-05-03T12:14:54.796Z,947.19
2019-05-03T12:17:26.059Z,947.17
2019-05-03T12:19:47.374Z,947.08
2019-05-03T12:22:12.314Z,947.06
2019-05-03T12:24:38.819Z,947.02
2019-05-03T12:27:04.769Z,946.97
2019-05-03T12:29:30.812Z,947.03
2019-05-03T12:31:57.153Z,946.99
2019-05-03T12:34:25.621Z,946.95
2019-05-03T12:36:51.439Z,946.92
2019-05-03T12:39:26.302Z,946.80
2019-05-03T12:41:42.466Z,946.89
2019-05-03T12:44:08.774Z,946.83
2019-05-03T12:46:35.410Z,946.79
2019-05-03T12:49:01.458Z,946.76
2019-05-03T12:51:27.761Z,946.82
2019-05-03T12:53:55.171Z,946.81
2019-05-03T12:56:23.826Z,946.71
2019-05-03T12:58:46.777Z,946.74
2019-05-03T13:01:13.086Z,946.73
2019-05-03T13:03:39.415Z,946.69
2019-05-03T13:06:07.417Z,946.65
2019-05-03T13:08:32.044Z,946.67
2019-05-03T13:10:58.408Z,946.58
2019-05-03T13:13:25.009Z,946.67
2019-05-03T13:15:51.021Z,946.67
2019-05-03T13:18:17.351Z,946.71
2019-05-03T13:20:45.342Z,946.71
2019-05-03T13:23:12.822Z,946.60
2019-05-03T13:25:36.309Z,946.57
2019-05-03T13:28:02.623Z,946.59
2019-05-03T13:30:28.952Z,946.56
2019-05-03T13:32:55.261Z,946.54
2019-05-03T13:35:21.588Z,946.54
2019-05-03T13:37:47.897Z,946.44
2019-05-03T13:40:14.222Z,946.36
2019-05-03T13:42:53.048Z,946.40
2019-05-03T13:45:06.836Z,946.33
2019-05-03T13:47:34.924Z,946.31
2019-05-03T13:49:59.466Z,946.34
2019-05-03T13:52:25.801Z,946.34
2019-05-03T13:54:52.227Z,946.33
2019-05-03T13:57:18.517Z,946.34
2019-05-03T13:59:44.956Z,946.24
2019-05-03T14:02:15.543Z,946.31
2019-05-03T14:04:49.311Z,946.34
2019-05-03T14:07:04.657Z,946.29
2019-05-03T14:09:30.114Z,946.29
2019-05-03T14:11:56.421Z,946.29
2019-05-03T14:14:22.755Z,946.27
2019-05-03T14:16:49.066Z,946.22
2019-05-03T14:19:15.405Z,946.26
2019-05-03T14:21:41.710Z,946.21
2019-05-03T14:24:08.027Z,946.10
2019-05-03T14:26:35.115Z,946.13
2019-05-03T14:29:00.664Z,946.17
2019-05-03T14:31:26.990Z,946.15
2019-05-03T14:33:55.632Z,946.15
2019-05-03T14:36:19.619Z,946.13
2019-05-03T14:38:47.054Z,946.09
2019-05-03T14:41:14.690Z,946.16
2019-05-03T14:43:38.593Z,946.08
2019-05-03T14:46:05.619Z,946.08
2019-05-03T14:48:31.220Z,946.08
2019-05-03T14:50:57.599Z,946.07
2019-05-03T14:53:25.424Z,946.09
2019-05-03T14:55:50.182Z,946.11
2019-05-03T14:58:17.537Z,946.16
2019-05-03T15:00:45.048Z,946.11
2019-05-03T15:03:09.160Z,946.12
2019-05-03T15:05:35.498Z,946.09
2019-05-03T15:08:01.830Z,946.07
2019-05-03T15:10:28.138Z,946.03
2019-05-03T15:12:55.639Z,946.04
2019-05-03T15:15:20.765Z,946.00
2019-05-03T15:17:47.107Z,946.00
2019-05-03T15:20:14.762Z,946.05
2019-05-03T15:22:40.772Z,945.99
2019-05-03T15:25:09.230Z,946.03
2019-05-03T15:27:35.506Z,946.07
2019-05-03T15:30:04.847Z,946.05
2019-05-03T15:32:29.984Z,946.14
2019-05-03T15:34:56.316Z,946.09
2019-05-03T15:37:22.628Z,946.18
2019-05-03T15:39:48.956Z,946.04
2019-05-03T15:42:15.278Z,946.15
2019-05-03T15:44:41.588Z,946.09
2019-05-03T15:47:09.528Z,946.03
2019-05-03T15:49:35.670Z,946.10
2019-05-03T15:52:00.729Z,946.04
2019-05-03T15:54:26.983Z,946.10
2019-05-03T15:56:54.379Z,946.10
2019-05-03T15:59:19.623Z,946.01
2019-05-03T16:01:45.948Z,946.06
2019-05-03T16:04:14.229Z,946.03
2019-05-03T16:06:38.598Z,946.01
2019-05-03T16:09:04.915Z,946.02
2019-05-03T16:11:31.290Z,946.06
2019-05-03T16:13:58.447Z,946.04
2019-05-03T16:16:24.969Z,946.08
2019-05-03T16:18:51.034Z,946.10
2019-05-03T16:21:17.341Z,946.11
2019-05-03T16:23:46.357Z,946.17
2019-05-03T16:26:10.193Z,946.15
2019-05-03T16:28:36.530Z,946.09
2019-05-03T16:31:02.864Z,946.12
2019-05-03T16:33:29.257Z,946.11
2019-05-03T16:35:55.573Z,946.12
2019-05-03T16:38:21.915Z,946.07
2019-05-03T16:40:48.360Z,946.10
2019-05-03T16:43:16.224Z,946.10
2019-05-03T16:45:41.634Z,946.11
2019-05-03T16:48:07.934Z,946.08
2019-05-03T16:50:34.616Z,946.11
2019-05-03T16:53:00.568Z,946.10
2019-05-03T16:55:26.910Z,946.14
2019-05-03T16:57:54.819Z,946.19
2019-05-03T17:00:19.545Z,946.24
2019-05-03T17:02:45.888Z,946.22
2019-05-03T17:05:14.268Z,946.20
2019-05-03T17:07:38.535Z,946.22
2019-05-03T17:10:07.268Z,946.22
2019-05-03T17:12:31.190Z,946.27
2019-05-03T17:14:57.575Z,946.29
2019-05-03T17:17:25.196Z,946.34
2019-05-03T17:19:50.198Z,946.37
2019-05-03T17:22:17.444Z,946.41
2019-05-03T17:24:44.434Z,946.40
2019-05-03T17:27:09.184Z,946.40
2019-05-03T17:29:35.656Z,946.42
2019-05-03T17:32:01.984Z,946.52
2019-05-03T17:34:28.288Z,946.48
2019-05-03T17:36:54.663Z,946.50
2019-05-03T17:39:20.988Z,946.57
2019-05-03T17:41:47.299Z,946.54
2019-05-03T17:44:14.437Z,946.62
2019-05-03T17:46:39.951Z,946.67
2019-05-03T17:49:06.267Z,946.69
2019-05-03T17:51:32.590Z,946.75
2019-05-03T17:53:58.894Z,946.78
2019-05-03T17:56:25.236Z,946.81
2019-05-03T17:58:51.560Z,946.86
2019-05-03T18:01:17.882Z,946.83
2019-05-03T18:03:44.889Z,946.84
2019-05-03T18:06:10.526Z,946.93
2019-05-03T18:08:36.856Z,947.01
2019-05-03T18:11:04.539Z,947.07
2019-05-03T18:13:29.509Z,947.11
2019-05-03T18:15:55.820Z,947.18
2019-05-03T18:18:24.725Z,947.22
2019-05-03T18:20:48.464Z,947.29
2019-05-03T18:23:15.356Z,947.31
2019-05-03T18:25:41.188Z,947.36
2019-05-03T18:28:07.520Z,947.35
2019-05-03T18:30:34.894Z,947.42
2019-05-03T18:33:00.165Z,947.37
2019-05-03T18:35:26.475Z,947.45
2019-05-03T18:37:54.612Z,947.53
2019-05-03T18:40:19.125Z,947.50
2019-05-03T18:42:45.435Z,947.56
2019-05-03T18:45:11.766Z,947.59
2019-05-03T18:47:38.089Z,947.51
2019-05-03T18:50:04.428Z,947.55
2019-05-03T18:52:30.757Z,947.48
2019-05-03T18:54:58.195Z,947.49
2019-05-03T18:57:25.448Z,947.44
2019-05-03T18:59:50.026Z,947.45
2019-05-03T19:02:16.391Z,947.37
2019-05-03T19:04:45.035Z,947.44
2019-05-03T19:07:09.070Z,947.49
2019-05-03T19:09:35.405Z,947.57
2019-05-03T19:12:01.825Z,947.56
2019-05-03T19:14:28.092Z,947.60
2019-05-03T19:16:55.203Z,947.62
2019-05-03T19:19:21.528Z,947.63
2019-05-03T19:21:47.995Z,947.66
2019-05-03T19:24:15.194Z,947.69
2019-05-03T19:26:40.654Z,947.74
2019-05-03T19:29:07.031Z,947.72
2019-05-03T19:31:35.497Z,947.72
2019-05-03T19:33:59.669Z,947.76
2019-05-03T19:36:26.032Z,947.74
2019-05-03T19:38:54.515Z,947.82
2019-05-03T19:41:18.760Z,947.86
2019-05-03T19:43:45.097Z,947.86
2019-05-03T19:46:11.557Z,947.96
2019-05-03T19:48:38.107Z,947.97
2019-05-03T19:51:08.365Z,948.01
2019-05-03T19:53:35.958Z,948.00
2019-05-03T19:56:01.078Z,947.96
2019-05-03T19:58:27.401Z,947.91
2019-05-03T20:00:54.870Z,947.89
2019-05-03T20:03:20.045Z,947.82
2019-05-03T20:05:46.373Z,947.84
2019-05-03T20:08:12.682Z,947.78
2019-05-03T20:10:39.016Z,947.85
2019-05-03T20:13:05.316Z,947.91
2019-05-03T20:15:32.812Z,947.85
2019-05-03T20:18:00.252Z,947.91
2019-05-03T20:20:25.430Z,947.93
2019-05-03T20:22:51.795Z,947.99
2019-05-03T20:25:18.131Z,948.01
2019-05-03T20:27:44.657Z,947.98
2019-05-03T20:30:10.775Z,947.96
2019-05-03T20:32:37.105Z,947.94
2019-05-03T20:35:14.597Z,947.89
2019-05-03T20:37:29.757Z,948.01
2019-05-03T20:39:56.083Z,948.03
2019-05-03T20:42:24.278Z,948.02
2019-05-03T20:44:48.752Z,948.06
2019-05-03T20:47:15.052Z,948.06
2019-05-03T20:49:41.384Z,948.00
2019-05-03T20:52:07.688Z,947.99
2019-05-03T20:54:34.969Z,948.01
2019-05-03T20:57:00.335Z,947.99
2019-05-03T20:59:26.671Z,947.99
2019-05-03T21:01:54.601Z,947.98
2019-05-03T21:04:19.322Z,947.96
2019-05-03T21:06:45.729Z,947.93
2019-05-03T21:09:11.973Z,947.89
2019-05-03T21:11:38.284Z,947.96
2019-05-03T21:14:04.819Z,948.00
2019-05-03T21:16:30.934Z,948.08
2019-05-03T21:18:57.321Z,948.06
2019-05-03T21:21:25.170Z,948.03
2019-05-03T21:23:49.944Z,948.02
2019-05-03T21:26:16.755Z,948.01
2019-05-03T21:28:42.581Z,948.00
2019-05-03T21:31:08.910Z,948.08
2019-05-03T21:33:35.608Z,948.12
2019-05-03T21:36:01.545Z,948.15
2019-05-03T21:38:27.975Z,948.11
2019-05-03T21:40:54.660Z,948.12
2019-05-03T21:43:20.632Z,948.19
2019-05-03T21:45:46.941Z,948.11
2019-05-03T21:48:14.614Z,948.14
2019-05-03T21:50:39.572Z,948.11
2019-05-03T21:53:06.035Z,948.04
2019-05-03T21:55:32.223Z,948.06
2019-05-03T21:57:58.533Z,948.12
2019-05-03T22:00:24.878Z,948.16
2019-05-03T22:02:51.182Z,948.17
2019-05-03T22:05:17.509Z,948.22
2019-05-03T22:07:44.413Z,948.25
2019-05-03T22:10:10.140Z,948.31
2019-05-03T22:12:36.467Z,948.25
2019-05-03T22:15:02.775Z,948.27
2019-05-03T22:17:29.101Z,948.23
2019-05-03T22:19:55.404Z,948.21
2019-05-03T22:22:21.714Z,948.25
2019-05-03T22:24:48.054Z,948.16
2019-05-03T22:27:15.255Z,948.19
2019-05-03T22:29:40.839Z,948.20
2019-05-03T22:32:07.163Z,948.17
2019-05-03T22:34:34.896Z,948.22
2019-05-03T22:36:59.791Z,948.31
2019-05-03T22:39:26.101Z,948.25
2019-05-03T22:41:52.430Z,948.29
2019-05-03T22:44:18.732Z,948.31
2019-05-03T22:46:45.059Z,948.13
2019-05-03T22:49:11.370Z,948.08
2019-05-03T22:51:37.680Z,948.02
2019-05-03T22:54:04.730Z,948.01
2019-05-03T22:56:30.315Z,948.10
2019-05-03T22:58:56.647Z,948.10
2019-05-03T23:01:22.973Z,948.10
2019-05-03T23:03:49.271Z,948.07
2019-05-03T23:06:22.131Z,948.04
2019-05-03T23:08:41.907Z,947.98
2019-05-03T23:11:08.252Z,948.07
2019-05-03T23:13:34.577Z,948.03
2019-05-03T23:16:00.886Z,948.01
2019-05-03T23:18:27.205Z,947.95
2019-05-03T23:20:55.185Z,947.96
2019-05-03T23:23:19.841Z,948.07
2019-05-03T23:25:46.149Z,947.99
2019-05-03T23:28:14.416Z,947.95
2019-05-03T23:30:38.804Z,948.01
2019-05-03T23:33:05.109Z,947.96
2019-05-03T23:35:31.434Z,947.96
2019-05-03T23:37:57.743Z,947.89
2019-05-03T23:40:25.405Z,947.94
2019-05-03T23:42:50.386Z,947.91
2019-05-03T23:45:16.718Z,947.89
2019-05-03T23:47:44.881Z,947.88
2019-05-03T23:50:09.371Z,947.87
2019-05-03T23:52:35.719Z,947.90
2019-05-03T23:55:02.056Z,947.85
2019-05-03T23:57:28.339Z,947.83
2019-05-03T23:59:56.808Z,947.89
